Time;durP1;ratioP1;P1;durP2;ratioP2;P2;SDS_P1;SDS_P2;PMS_P1;PMS_P2;Temp;Humidity;BMP_temperature;BMP_pressure;BME280_temperature;BME280_humidity;BME280_pressure;Samples;Min_cycle;Max_cycle;Signal;HPM_P1;HPM_P2
2023/11/18 00:00:21;;;;;;;19.58;11.40;;;;;;;11.16;70.35;102398.66;4992660;28;20030;-47
2023/11/18 00:02:47;;;;;;;25.88;12.32;;;;;;;11.20;70.41;102387.50;4992412;28;20049;-48
2023/11/18 00:05:13;;;;;;;23.60;12.38;;;;;;;11.14;70.58;102389.91;4991810;28;20093;-47
2023/11/18 00:07:39;;;;;;;22.60;11.75;;;;;;;11.16;70.15;102392.56;4992606;28;20034;-46
2023/11/18 00:10:06;;;;;;;26.45;13.43;;;;;;;11.03;70.64;102388.63;4992431;28;20053;-46
2023/11/18 00:12:34;;;;;;;23.73;12.13;;;;;;;11.09;70.00;102377.53;4992120;28;20096;-45
2023/11/18 00:15:00;;;;;;;24.27;12.60;;;;;;;11.05;69.94;102376.50;4991643;28;20038;-48
2023/11/18 00:17:25;;;;;;;24.73;11.63;;;;;;;11.05;69.79;102381.72;4992309;28;20060;-46
2023/11/18 00:19:50;;;;;;;20.65;11.48;;;;;;;11.01;69.80;102378.97;4992624;28;20501;-47
2023/11/18 00:22:16;;;;;;;24.52;11.98;;;;;;;10.96;70.01;102381.41;4992515;28;20041;-49
2023/11/18 00:24:44;;;;;;;26.20;12.57;;;;;;;10.94;69.95;102378.75;4992721;28;20497;-47
2023/11/18 00:27:10;;;;;;;22.90;11.95;;;;;;;10.91;70.02;102381.25;4991573;28;20511;-46
2023/11/18 00:29:37;;;;;;;22.85;12.05;;;;;;;10.89;69.72;102380.31;4992081;28;20033;-46
2023/11/18 00:32:03;;;;;;;21.45;12.32;;;;;;;10.87;70.37;102384.56;4991486;28;20038;-46
2023/11/18 00:34:29;;;;;;;28.17;12.40;;;;;;;10.87;69.78;102386.28;4991788;28;20069;-47
2023/11/18 00:36:57;;;;;;;25.48;12.55;;;;;;;10.84;70.30;102386.19;4991561;28;20126;-46
2023/11/18 00:39:22;;;;;;;26.60;13.45;;;;;;;10.83;70.68;102382.69;4991928;28;20046;-46
2023/11/18 00:41:48;;;;;;;30.30;13.43;;;;;;;10.83;71.06;102379.19;4991892;28;20045;-45
2023/11/18 00:44:14;;;;;;;25.30;13.23;;;;;;;10.87;71.41;102384.56;4991381;28;20062;-46
2023/11/18 00:46:39;;;;;;;22.73;12.55;;;;;;;10.93;71.44;102389.13;4991785;28;20057;-46
2023/11/18 00:49:05;;;;;;;27.88;13.15;;;;;;;11.05;71.20;102389.56;4991014;28;20043;-49
2023/11/18 00:51:31;;;;;;;22.58;12.70;;;;;;;11.12;71.00;102386.31;4991814;28;20039;-44
2023/11/18 00:53:56;;;;;;;23.63;12.10;;;;;;;11.15;71.10;102389.06;4990933;28;20104;-44
2023/11/18 00:56:21;;;;;;;24.60;13.23;;;;;;;11.14;71.19;102383.78;4991781;28;20117;-49
2023/11/18 00:58:50;;;;;;;26.70;12.80;;;;;;;11.19;71.25;102385.72;4991576;28;20059;-45
2023/11/18 01:01:18;;;;;;;26.45;12.85;;;;;;;11.17;71.39;102391.69;4991091;28;20038;-51
2023/11/18 01:03:44;;;;;;;27.48;12.73;;;;;;;11.23;71.14;102398.03;4992039;28;20646;-48
2023/11/18 01:06:10;;;;;;;22.17;12.15;;;;;;;11.26;71.37;102395.53;4973700;28;20080;-47
2023/11/18 01:08:35;;;;;;;23.27;12.48;;;;;;;11.25;71.32;102393.75;4997141;28;20027;-45
2023/11/18 01:11:01;;;;;;;28.67;13.45;;;;;;;11.24;70.79;102396.31;4999156;28;20077;-49
2023/11/18 01:13:26;;;;;;;28.77;12.63;;;;;;;11.23;71.09;102392.81;4998322;28;20504;-52
2023/11/18 01:15:52;;;;;;;27.42;12.50;;;;;;;11.16;71.17;102393.44;4991635;28;20030;-43
2023/11/18 01:18:17;;;;;;;24.70;12.65;;;;;;;11.30;71.05;102391.31;4991267;28;20034;-45
2023/11/18 01:20:43;;;;;;;29.55;13.20;;;;;;;11.21;71.36;102391.88;4991059;28;20030;-50
2023/11/18 01:23:08;;;;;;;30.27;12.73;;;;;;;11.30;71.22;102392.19;4990714;28;20057;-47
2023/11/18 01:25:34;;;;;;;23.10;12.00;;;;;;;11.32;71.08;102394.88;4991282;28;20181;-47
2023/11/18 01:27:59;;;;;;;23.45;12.25;;;;;;;11.30;71.07;102397.41;4990076;28;20061;-47
2023/11/18 01:30:26;;;;;;;29.48;12.60;;;;;;;11.34;71.21;102407.13;4990729;28;20131;-52
2023/11/18 01:32:52;;;;;;;26.73;12.55;;;;;;;11.37;71.15;102414.19;4991192;28;20038;-47
2023/11/18 01:35:17;;;;;;;27.50;12.20;;;;;;;11.39;71.20;102418.63;4990525;28;20037;-51
2023/11/18 01:37:43;;;;;;;24.30;12.57;;;;;;;11.38;71.03;102418.56;4990584;28;20037;-46
2023/11/18 01:40:13;;;;;;;26.63;12.40;;;;;;;11.43;70.95;102411.78;4973366;28;20038;-46
2023/11/18 01:42:38;;;;;;;28.63;11.90;;;;;;;11.50;70.72;102415.50;4990874;28;20060;-47
2023/11/18 01:45:04;;;;;;;26.13;13.07;;;;;;;11.32;70.71;102418.38;4989816;28;20082;-46
2023/11/18 01:47:32;;;;;;;26.27;12.80;;;;;;;11.39;70.97;102422.97;4990955;28;20026;-45
2023/11/18 01:49:59;;;;;;;26.27;12.65;;;;;;;11.43;70.84;102421.34;4990423;28;20116;-46
2023/11/18 01:52:26;;;;;;;28.27;13.25;;;;;;;11.42;70.69;102417.84;4973501;28;20181;-44
2023/11/18 01:54:54;;;;;;;30.90;14.13;;;;;;;11.37;70.83;102420.28;4990832;28;20034;-48
2023/11/18 01:57:20;;;;;;;27.77;13.52;;;;;;;11.43;70.61;102418.72;4990187;28;20054;-51
2023/11/18 01:59:46;;;;;;;30.67;13.77;;;;;;;11.34;70.68;102414.09;4990492;28;20069;-46
2023/11/18 02:02:13;;;;;;;26.75;13.02;;;;;;;11.42;70.66;102406.50;4990185;28;20107;-45
2023/11/18 02:04:38;;;;;;;26.33;13.75;;;;;;;11.33;70.70;102417.53;4990772;28;20316;-44
2023/11/18 02:07:08;;;;;;;31.98;13.48;;;;;;;11.37;70.56;102416.78;4990572;28;20034;-47
2023/11/18 02:09:34;;;;;;;27.42;13.90;;;;;;;11.33;70.76;102414.91;4991037;28;20074;-46
2023/11/18 02:12:12;;;;;;;29.75;13.18;;;;;;;11.35;70.59;102415.84;4990272;28;20045;-46
2023/11/18 02:14:39;;;;;;;27.50;13.80;;;;;;;11.37;70.66;102416.78;4990664;28;20112;-48
2023/11/18 02:17:06;;;;;;;25.88;13.30;;;;;;;11.33;70.50;102425.38;4991313;28;20041;-45
2023/11/18 02:19:34;;;;;;;30.92;14.02;;;;;;;11.32;70.86;102415.75;4994913;28;20051;-49
2023/11/18 02:22:00;;;;;;;25.20;13.90;;;;;;;11.36;70.47;102405.47;4994470;28;20038;-46
2023/11/18 02:24:33;;;;;;;28.48;14.23;;;;;;;11.39;70.64;102402.06;4995297;28;20085;-46
2023/11/18 02:26:59;;;;;;;27.58;14.20;;;;;;;11.39;70.50;102396.84;4995400;28;20038;-46
2023/11/18 02:29:27;;;;;;;28.17;13.82;;;;;;;11.40;70.26;102393.41;4995534;28;20037;-45
2023/11/18 02:32:01;;;;;;;26.20;14.43;;;;;;;11.38;70.22;102384.63;4995935;28;20038;-44
2023/11/18 02:34:31;;;;;;;32.58;15.15;;;;;;;11.45;70.26;102375.28;4978349;28;20026;-45
2023/11/18 02:37:01;;;;;;;28.52;15.23;;;;;;;11.43;70.58;102372.59;4994485;28;20042;-45
2023/11/18 02:39:33;;;;;;;29.83;15.13;;;;;;;11.50;70.42;102374.59;4994683;28;20050;-47
2023/11/18 02:42:02;;;;;;;27.02;14.95;;;;;;;11.55;70.29;102372.13;4994438;28;20575;-46
2023/11/18 02:44:30;;;;;;;27.83;15.45;;;;;;;11.50;70.39;102381.53;4994571;28;20030;-46
2023/11/18 02:46:57;;;;;;;27.23;15.20;;;;;;;11.59;70.15;102381.84;4994088;28;20062;-44
2023/11/18 02:49:23;;;;;;;28.25;14.98;;;;;;;11.61;69.94;102377.56;4994673;28;20034;-49
2023/11/18 02:51:49;;;;;;;31.60;15.25;;;;;;;11.51;70.04;102365.94;4994588;28;20089;-46
2023/11/18 02:54:16;;;;;;;27.75;14.98;;;;;;;11.56;70.04;102371.28;4993592;28;20045;-46
2023/11/18 02:56:41;;;;;;;27.95;14.57;;;;;;;11.61;69.75;102357.56;4993512;28;20045;-45
2023/11/18 02:59:07;;;;;;;27.35;14.23;;;;;;;11.46;69.48;102364.00;4993214;28;20038;-47
2023/11/18 03:01:39;;;;;;;28.88;14.02;;;;;;;11.56;69.69;102372.19;4976140;28;20034;-46
2023/11/18 03:04:05;;;;;;;28.33;13.82;;;;;;;11.59;69.33;102363.53;4993245;28;20045;-44
2023/11/18 03:06:32;;;;;;;25.90;13.73;;;;;;;11.67;68.90;102355.13;4993926;28;20117;-47
2023/11/18 03:08:57;;;;;;;25.00;13.15;;;;;;;11.59;69.27;102355.72;4993782;28;20031;-50
2023/11/18 03:11:22;;;;;;;25.23;13.57;;;;;;;11.64;68.80;102354.16;4993806;28;20053;-45
2023/11/18 03:13:48;;;;;;;24.00;13.00;;;;;;;11.63;68.87;102348.03;4994934;28;20041;-52
2023/11/18 03:16:14;;;;;;;24.88;12.43;;;;;;;11.70;68.79;102339.56;4978951;28;20042;-52
2023/11/18 03:18:42;;;;;;;23.85;11.38;;;;;;;11.72;68.65;102335.25;4997565;28;20469;-46
2023/11/18 03:21:12;;;;;;;27.38;11.82;;;;;;;11.65;68.45;102340.22;4992809;28;20574;-49
2023/11/18 03:23:41;;;;;;;23.20;11.65;;;;;;;11.75;68.05;102334.53;4993339;28;20042;-46
2023/11/18 03:26:07;;;;;;;23.75;11.75;;;;;;;11.74;67.70;102320.56;4992713;28;20089;-47
2023/11/18 03:28:33;;;;;;;19.95;11.45;;;;;;;11.73;68.03;102308.34;4992533;28;20551;-47
2023/11/18 03:30:58;;;;;;;21.63;11.68;;;;;;;11.64;68.36;102296.69;4992394;28;20038;-48
2023/11/18 03:33:24;;;;;;;23.73;11.38;;;;;;;11.72;68.15;102292.56;4993125;28;20034;-46
2023/11/18 03:35:49;;;;;;;30.45;12.35;;;;;;;11.77;67.81;102299.75;4992930;28;20030;-46
2023/11/18 03:38:17;;;;;;;24.25;12.68;;;;;;;11.75;67.75;102298.84;4992423;28;20062;-47
2023/11/18 03:40:44;;;;;;;22.13;12.65;;;;;;;11.67;67.52;102283.72;4975714;28;20106;-45
2023/11/18 03:43:11;;;;;;;24.00;12.90;;;;;;;11.56;68.01;102272.94;4992268;28;20092;-44
2023/11/18 03:45:38;;;;;;;23.27;12.85;;;;;;;11.63;67.92;102274.00;4992602;28;20109;-44
2023/11/18 03:48:04;;;;;;;28.25;13.23;;;;;;;11.49;68.24;102281.41;4992261;28;20045;-48
2023/11/18 03:50:29;;;;;;;27.17;12.55;;;;;;;11.65;67.45;102282.75;4992461;28;20405;-51
2023/11/18 03:52:54;;;;;;;21.85;12.27;;;;;;;11.64;67.06;102286.25;4992246;28;20042;-45
2023/11/18 03:55:19;;;;;;;23.10;12.02;;;;;;;11.59;67.74;102287.78;4992844;28;20033;-46
2023/11/18 03:57:45;;;;;;;21.92;11.63;;;;;;;11.54;68.10;102276.31;4992463;28;20065;-50
2023/11/18 04:00:11;;;;;;;23.98;12.10;;;;;;;11.60;67.74;102264.34;4992024;28;20042;-46
2023/11/18 04:02:37;;;;;;;22.10;12.32;;;;;;;11.51;68.13;102264.06;4992462;28;20030;-46
2023/11/18 04:05:03;;;;;;;18.50;11.55;;;;;;;11.68;67.45;102259.38;4974647;28;20038;-46
2023/11/18 04:07:29;;;;;;;24.77;11.43;;;;;;;11.65;67.53;102251.41;4992748;28;20404;-45
2023/11/18 04:09:54;;;;;;;22.45;11.48;;;;;;;11.63;67.38;102238.34;4992161;28;20042;-47
2023/11/18 04:12:19;;;;;;;23.75;11.50;;;;;;;11.73;67.44;102240.41;4993357;28;20042;-44
2023/11/18 04:14:45;;;;;;;22.80;11.88;;;;;;;11.69;67.53;102230.69;4994320;28;20046;-46
2023/11/18 04:17:10;;;;;;;21.30;11.07;;;;;;;11.78;67.19;102233.59;4976293;28;20046;-44
2023/11/18 04:19:35;;;;;;;22.35;11.93;;;;;;;11.56;67.36;102227.66;4992718;28;20061;-45
2023/11/18 04:22:01;;;;;;;24.13;12.75;;;;;;;11.62;67.29;102223.50;4991911;28;20034;-48
2023/11/18 04:24:26;;;;;;;22.05;11.70;;;;;;;11.69;66.83;102225.47;4992765;28;20117;-46
2023/11/18 04:26:51;;;;;;;24.90;12.35;;;;;;;11.65;66.72;102230.53;4993697;28;20031;-47
2023/11/18 04:29:17;;;;;;;24.20;12.27;;;;;;;11.67;66.96;102237.56;4993062;28;20386;-48
2023/11/18 04:31:43;;;;;;;24.00;12.95;;;;;;;11.74;66.71;102233.47;4992888;28;20038;-51
2023/11/18 04:34:08;;;;;;;22.63;13.20;;;;;;;11.62;66.82;102228.72;4991781;28;20125;-45
2023/11/18 04:36:34;;;;;;;25.52;12.95;;;;;;;11.69;67.00;102224.56;4992091;28;20392;-46
2023/11/18 04:38:59;;;;;;;24.27;13.27;;;;;;;11.72;66.75;102214.19;4974136;28;20042;-48
2023/11/18 04:41:25;;;;;;;23.33;13.52;;;;;;;11.58;67.12;102221.63;4991310;28;20034;-46
2023/11/18 04:43:50;;;;;;;25.75;13.65;;;;;;;11.65;66.72;102220.97;4992150;28;20049;-47
2023/11/18 04:46:15;;;;;;;28.23;13.90;;;;;;;11.62;66.91;102214.78;4991490;28;20073;-49
2023/11/18 04:48:41;;;;;;;27.98;13.65;;;;;;;11.60;66.88;102222.56;4993612;28;20034;-46
2023/11/18 04:51:06;;;;;;;23.83;13.70;;;;;;;11.66;66.63;102212.28;4992243;28;20034;-46
2023/11/18 04:53:31;;;;;;;27.92;13.93;;;;;;;11.69;66.38;102204.56;4992507;28;20065;-45
2023/11/18 04:55:58;;;;;;;27.02;12.63;;;;;;;11.69;66.63;102201.06;4991582;28;20129;-45
2023/11/18 04:58:23;;;;;;;29.58;13.77;;;;;;;11.69;66.50;102198.44;4992274;28;20042;-48
2023/11/18 05:00:49;;;;;;;23.42;12.70;;;;;;;11.76;66.19;102190.88;4992413;28;20519;-47
2023/11/18 05:03:18;;;;;;;21.80;11.77;;;;;;;11.71;66.38;102183.72;4991846;28;20041;-48
2023/11/18 05:05:43;;;;;;;23.50;12.50;;;;;;;11.73;66.23;102188.16;4991937;28;20061;-47
2023/11/18 05:08:20;;;;;;;25.20;13.07;;;;;;;11.77;66.07;102176.09;4973480;28;20062;-46
2023/11/18 05:10:49;;;;;;;24.95;13.15;;;;;;;11.75;66.37;102172.53;4991732;28;20057;-48
2023/11/18 05:13:16;;;;;;;28.55;12.93;;;;;;;11.72;65.84;102164.56;4991384;28;20464;-51
2023/11/18 05:15:46;;;;;;;25.27;12.82;;;;;;;11.73;66.09;102167.25;4991569;28;20030;-45
2023/11/18 05:18:14;;;;;;;27.40;12.32;;;;;;;11.79;66.08;102164.81;4991488;28;20069;-46
2023/11/18 05:20:48;;;;;;;26.77;12.15;;;;;;;11.80;66.13;102160.47;4996206;28;20094;-49
2023/11/18 05:23:14;;;;;;;;;;;;;;;11.81;65.84;102158.75;4999851;28;20038;-46
2023/11/18 05:25:39;;;;;;;27.20;12.17;;;;;;;11.64;65.68;102153.91;4997485;28;20360;-52
2023/11/18 05:28:08;;;;;;;23.75;12.02;;;;;;;11.86;65.53;102149.31;4991687;28;20293;-47
2023/11/18 05:30:34;;;;;;;25.38;12.52;;;;;;;11.77;65.46;102140.38;4992247;28;20398;-51
2023/11/18 05:33:04;;;;;;;26.13;12.95;;;;;;;11.71;65.35;102145.38;4991392;28;20089;-45
2023/11/18 05:35:29;;;;;;;26.98;12.07;;;;;;;11.57;66.09;102143.22;4991997;28;20089;-46
2023/11/18 05:37:55;;;;;;;22.65;12.10;;;;;;;11.76;65.88;102138.63;4991138;28;20038;-45
2023/11/18 05:40:21;;;;;;;23.02;12.57;;;;;;;11.71;65.78;102139.31;4992370;28;20484;-45
2023/11/18 05:42:48;;;;;;;22.38;12.38;;;;;;;11.77;65.40;102137.75;4992025;28;20054;-53
2023/11/18 05:45:27;;;;;;;27.58;12.55;;;;;;;11.60;65.91;102122.41;4990723;28;20570;-47
2023/11/18 05:47:54;;;;;;;25.67;12.55;;;;;;;11.73;65.41;102117.63;4990764;28;20549;-48
2023/11/18 05:50:19;;;;;;;21.92;11.77;;;;;;;11.56;65.47;102111.00;4990705;28;20044;-45
2023/11/18 05:52:44;;;;;;;23.45;11.95;;;;;;;11.64;65.79;102121.69;4990088;28;20115;-49
2023/11/18 05:55:10;;;;;;;21.08;12.35;;;;;;;11.59;65.79;102129.34;4990154;28;20042;-45
2023/11/18 05:57:36;;;;;;;23.55;12.48;;;;;;;11.66;65.26;102131.31;4990563;28;20080;-49
2023/11/18 06:00:01;;;;;;;24.20;12.05;;;;;;;11.78;65.21;102113.41;4989951;28;20038;-46
2023/11/18 06:02:26;;;;;;;25.52;12.27;;;;;;;11.81;64.63;102125.69;4990614;28;20118;-45
2023/11/18 06:04:52;;;;;;;22.13;12.23;;;;;;;11.90;64.64;102122.41;4990328;28;20038;-46
2023/11/18 06:07:18;;;;;;;25.52;11.77;;;;;;;11.77;64.93;102109.00;4989649;28;20054;-48
2023/11/18 06:09:45;;;;;;;24.80;12.55;;;;;;;11.74;65.12;102098.50;4990477;28;20034;-46
2023/11/18 06:12:10;;;;;;;25.88;12.57;;;;;;;11.89;64.77;102103.28;4989965;28;20585;-45
2023/11/18 06:14:37;;;;;;;26.17;11.85;;;;;;;11.81;64.70;102096.06;4990186;28;20117;-45
2023/11/18 06:17:03;;;;;;;22.67;11.80;;;;;;;11.62;64.97;102094.63;4989875;28;20088;-50
2023/11/18 06:19:28;;;;;;;23.27;11.73;;;;;;;11.95;64.23;102103.44;4990189;28;20050;-49
2023/11/18 06:21:54;;;;;;;23.60;11.18;;;;;;;11.95;64.10;102102.56;4989857;28;20493;-47
2023/11/18 06:24:21;;;;;;;18.98;10.85;;;;;;;11.86;64.46;102102.28;4990731;28;20027;-47
2023/11/18 06:26:49;;;;;;;23.60;11.00;;;;;;;11.92;64.12;102110.28;4990885;28;20536;-46
2023/11/18 06:29:15;;;;;;;19.60;11.40;;;;;;;11.49;65.79;102103.81;4990178;28;20038;-44
2023/11/18 06:31:40;;;;;;;24.58;12.15;;;;;;;11.52;66.08;102089.97;4990945;28;20034;-46
2023/11/18 06:34:07;;;;;;;24.88;11.73;;;;;;;11.73;65.26;102088.88;4990362;28;20053;-45
2023/11/18 06:36:32;;;;;;;23.45;11.80;;;;;;;11.87;64.73;102081.44;4990817;28;20026;-52
2023/11/18 06:38:58;;;;;;;24.25;11.23;;;;;;;11.98;64.00;102090.44;4990311;28;20042;-49
2023/11/18 06:41:25;;;;;;;25.33;11.48;;;;;;;11.99;64.18;102105.28;4990344;28;20397;-49
2023/11/18 06:43:51;;;;;;;24.42;10.93;;;;;;;11.95;64.57;102099.94;4990317;28;20100;-47
2023/11/18 06:46:21;;;;;;;20.45;10.80;;;;;;;11.95;64.42;102090.38;4989248;28;20059;-49
2023/11/18 06:48:48;;;;;;;22.05;10.38;;;;;;;11.92;64.38;102085.06;4989768;28;20034;-49
2023/11/18 06:51:15;;;;;;;21.73;11.02;;;;;;;11.91;64.52;102085.00;4989624;28;20042;-47
2023/11/18 06:53:40;;;;;;;23.50;11.57;;;;;;;11.90;64.52;102091.94;4990135;28;20041;-49
2023/11/18 06:56:06;;;;;;;23.02;11.32;;;;;;;11.90;64.70;102094.56;4989437;28;20038;-45
2023/11/18 06:58:31;;;;;;;26.88;10.60;;;;;;;12.01;64.13;102082.69;4989676;28;20042;-50
2023/11/18 07:00:57;;;;;;;27.63;11.15;;;;;;;11.96;64.63;102088.63;4989557;28;20034;-47
2023/11/18 07:03:23;;;;;;;21.73;10.93;;;;;;;11.90;64.49;102098.91;4989787;28;20030;-43
2023/11/18 07:05:49;;;;;;;24.20;10.77;;;;;;;11.90;63.76;102093.69;4993474;28;20145;-48
2023/11/18 07:08:14;;;;;;;22.45;10.35;;;;;;;11.97;64.45;102099.13;4993119;28;20034;-46
2023/11/18 07:10:40;;;;;;;22.35;10.63;;;;;;;11.63;65.49;102097.28;4994327;28;20026;-45
2023/11/18 07:13:08;;;;;;;28.13;10.40;;;;;;;11.82;64.65;102088.25;4993511;28;20037;-45
2023/11/18 07:15:34;;;;;;;27.38;9.80;;;;;;;12.03;63.65;102098.41;4993442;28;20039;-48
2023/11/18 07:17:59;;;;;;;22.73;9.60;;;;;;;12.07;63.59;102098.53;4992392;28;20045;-45
2023/11/18 07:20:24;;;;;;;21.05;9.50;;;;;;;11.91;63.96;102103.28;4993240;28;20089;-48
2023/11/18 07:22:50;;;;;;;27.63;9.60;;;;;;;12.02;64.01;102112.31;4993353;28;20091;-44
2023/11/18 07:25:15;;;;;;;26.10;9.98;;;;;;;11.97;64.31;102112.19;4992909;28;20409;-48
2023/11/18 07:27:40;;;;;;;23.50;9.63;;;;;;;12.12;63.62;102107.38;5002734;28;20054;-47
2023/11/18 07:30:10;;;;;;;21.05;9.35;;;;;;;12.01;63.88;102103.59;5003051;28;20129;-52
2023/11/18 07:32:35;;;;;;;23.52;9.52;;;;;;;11.98;63.90;102097.41;4993268;28;20511;-49
2023/11/18 07:35:01;;;;;;;24.88;9.65;;;;;;;12.06;63.80;102106.34;4992488;28;20034;-48
2023/11/18 07:37:26;;;;;;;24.10;9.57;;;;;;;11.81;64.70;102099.56;4993132;28;20031;-45
2023/11/18 07:39:52;;;;;;;21.80;9.30;;;;;;;11.88;64.66;102084.94;4992866;28;20052;-49
2023/11/18 07:42:18;;;;;;;23.20;9.25;;;;;;;11.93;64.26;102080.72;4992471;28;20125;-48
2023/11/18 07:44:43;;;;;;;21.08;9.13;;;;;;;11.81;64.51;102075.16;4992918;28;20040;-46
2023/11/18 07:47:09;;;;;;;19.45;9.30;;;;;;;12.08;63.50;102070.66;4992610;28;20035;-47
2023/11/18 07:49:35;;;;;;;22.00;9.05;;;;;;;12.10;63.95;102069.84;4992773;28;20113;-48
2023/11/18 07:52:02;;;;;;;23.38;8.77;;;;;;;12.10;64.18;102067.25;4992899;28;20038;-49
2023/11/18 07:54:27;;;;;;;21.38;8.95;;;;;;;12.09;63.89;102059.34;4992894;28;20038;-48
2023/11/18 07:56:53;;;;;;;19.85;8.13;;;;;;;12.18;63.83;102055.25;4992660;28;20041;-50
2023/11/18 07:59:19;;;;;;;20.42;8.65;;;;;;;11.92;64.44;102061.53;4992539;28;20065;-46
2023/11/18 08:01:46;;;;;;;20.33;8.63;;;;;;;12.04;64.18;102054.00;4992569;28;20465;-46
2023/11/18 08:04:13;;;;;;;21.65;8.40;;;;;;;11.89;64.72;102061.47;4992365;28;20034;-47
2023/11/18 08:06:39;;;;;;;26.63;7.90;;;;;;;12.00;64.33;102048.66;4992684;28;20046;-48
2023/11/18 08:09:10;;;;;;;24.25;8.52;;;;;;;11.85;64.45;102054.38;4993318;28;20456;-47
2023/11/18 08:11:35;;;;;;;17.52;7.95;;;;;;;11.89;64.31;102057.97;4992837;28;20121;-48
2023/11/18 08:14:02;;;;;;;17.98;8.30;;;;;;;11.93;63.95;102054.56;4991970;28;20209;-47
2023/11/18 08:16:28;;;;;;;21.17;7.85;;;;;;;11.89;64.45;102060.56;4992352;28;20026;-44
2023/11/18 08:18:53;;;;;;;18.60;8.00;;;;;;;11.92;64.67;102056.31;4992390;28;20054;-50
2023/11/18 08:21:19;;;;;;;18.83;7.97;;;;;;;12.05;64.96;102058.41;4992342;28;20035;-50
2023/11/18 08:23:44;;;;;;;17.23;7.55;;;;;;;12.20;64.08;102044.81;4992149;28;20693;-43
2023/11/18 08:26:11;;;;;;;21.52;7.63;;;;;;;12.03;64.92;102047.00;4991993;28;20046;-47
2023/11/18 08:28:37;;;;;;;20.65;8.23;;;;;;;11.84;66.24;102046.47;4991977;28;20492;-48
2023/11/18 08:31:02;;;;;;;18.55;8.13;;;;;;;11.83;66.75;102045.63;4991626;28;20044;-45
2023/11/18 08:33:28;;;;;;;14.90;7.35;;;;;;;11.77;66.42;102037.63;4991863;28;20041;-48
2023/11/18 08:35:54;;;;;;;18.35;8.00;;;;;;;11.90;66.75;102029.22;4991599;28;20043;-47
2023/11/18 08:38:19;;;;;;;19.30;8.32;;;;;;;11.55;68.37;102017.81;4974712;28;20045;-44
2023/11/18 08:40:47;;;;;;;18.27;7.93;;;;;;;11.62;68.73;102005.81;4992417;28;20393;-46
2023/11/18 08:43:12;;;;;;;19.77;7.80;;;;;;;11.47;69.32;101998.44;4992067;28;20113;-46
2023/11/18 08:45:37;;;;;;;18.42;8.25;;;;;;;11.54;69.26;102009.94;4992710;28;20466;-44
2023/11/18 08:48:07;;;;;;;17.88;7.65;;;;;;;11.81;68.75;102000.25;4992548;28;20070;-46
2023/11/18 08:50:33;;;;;;;18.10;8.05;;;;;;;11.53;70.30;101989.88;4991684;28;20042;-46
2023/11/18 08:52:59;;;;;;;16.83;7.88;;;;;;;11.51;70.08;101991.56;4991986;28;20510;-43
2023/11/18 08:55:50;;;;;;;17.88;7.68;;;;;;;11.60;69.95;101984.88;4990939;28;20061;-45
2023/11/18 08:58:19;;;;;;;17.70;7.97;;;;;;;11.56;70.36;101976.91;4990789;28;20176;-44
2023/11/18 09:01:13;;;;;;;19.17;7.95;;;;;;;11.58;70.84;101960.47;4991522;28;20648;-44
2023/11/18 09:03:43;;;;;;;17.20;7.80;;;;;;;11.21;72.19;101949.84;4973516;28;20030;-44
2023/11/18 09:06:18;;;;;;;21.00;7.95;;;;;;;11.11;72.41;101939.97;4990870;28;20050;-44
2023/11/18 09:08:57;;;;;;;20.40;7.88;;;;;;;11.62;71.48;101930.94;4991970;28;20026;-43
2023/11/18 09:11:26;;;;;;;14.65;7.05;;;;;;;11.71;70.63;101923.31;4991334;28;20084;-46
2023/11/18 09:13:57;;;;;;;17.88;7.22;;;;;;;11.59;71.62;101911.69;4991036;28;20030;-45
2023/11/18 09:16:24;;;;;;;18.02;7.43;;;;;;;11.82;71.01;101910.59;4983297;28;20033;-44
2023/11/18 09:18:50;;;;;;;17.25;7.25;;;;;;;11.66;71.31;101911.00;4990801;28;20045;-46
2023/11/18 09:21:19;;;;;;;20.23;6.97;;;;;;;11.88;71.18;101910.75;4989606;28;20683;-45
2023/11/18 09:23:45;;;;;;;16.33;6.70;;;;;;;11.96;70.73;101909.19;4991157;28;20121;-47
2023/11/18 09:26:10;;;;;;;16.10;7.10;;;;;;;11.70;71.60;101907.66;4990912;28;20193;-48
2023/11/18 09:28:36;;;;;;;19.10;6.60;;;;;;;11.95;70.82;101911.78;4996116;28;20116;-44
2023/11/18 09:31:03;;;;;;;23.77;7.00;;;;;;;12.08;70.73;101911.19;5000846;28;20041;-46
2023/11/18 09:33:33;;;;;;;18.58;6.78;;;;;;;12.08;70.64;101906.84;5000942;28;20034;-45
2023/11/18 09:36:11;;;;;;;15.35;5.97;;;;;;;12.07;70.89;101906.84;4993782;28;20412;-50
2023/11/18 09:38:40;;;;;;;18.67;6.47;;;;;;;12.17;70.54;101900.97;4990855;28;20067;-50
2023/11/18 09:41:11;;;;;;;16.05;6.30;;;;;;;12.17;70.62;101904.47;4990257;28;20121;-46
2023/11/18 09:43:47;;;;;;;16.75;6.22;;;;;;;11.87;71.16;101901.13;4991807;28;20159;-44
2023/11/18 09:46:16;;;;;;;11.68;5.82;;;;;;;12.05;71.29;101895.47;4975368;28;20073;-47
2023/11/18 09:48:52;;;;;;;11.75;5.35;;;;;;;12.26;70.53;101887.25;4990756;28;20183;-44
2023/11/18 09:51:23;;;;;;;15.98;5.57;;;;;;;12.29;70.89;101889.91;4990407;28;20434;-46
2023/11/18 09:53:53;;;;;;;13.60;5.55;;;;;;;12.36;70.04;101892.72;4991439;28;20030;-46
2023/11/18 09:56:34;;;;;;;17.42;5.50;;;;;;;12.32;70.38;101896.06;4990689;28;20488;-45
2023/11/18 09:59:15;;;;;;;15.52;5.10;;;;;;;11.95;71.59;101886.53;4991263;28;20572;-47
2023/11/18 10:01:44;;;;;;;12.27;5.07;;;;;;;11.99;71.77;101882.25;4990890;28;20030;-45
2023/11/18 10:04:10;;;;;;;15.20;5.38;;;;;;;12.26;70.85;101879.41;4989859;28;20122;-46
2023/11/18 10:06:38;;;;;;;9.82;4.90;;;;;;;12.20;70.93;101887.97;4991029;28;20044;-46
2023/11/18 10:09:15;;;;;;;9.07;4.90;;;;;;;12.30;70.76;101887.34;4989818;28;20034;-50
2023/11/18 10:11:42;;;;;;;10.75;4.72;;;;;;;12.18;70.70;101884.44;4974847;28;20037;-48
2023/11/18 10:14:08;;;;;;;10.63;4.60;;;;;;;12.60;69.66;101892.34;4990202;28;20621;-46
2023/11/18 10:16:34;;;;;;;14.50;5.22;;;;;;;12.30;70.16;101887.34;4990467;28;20145;-46
2023/11/18 10:19:00;;;;;;;13.07;4.80;;;;;;;12.31;71.27;101869.91;4989916;28;20129;-45
2023/11/18 10:21:39;;;;;;;13.63;4.82;;;;;;;12.01;71.58;101857.03;4991419;28;20038;-48
2023/11/18 10:24:10;;;;;;;11.35;4.40;;;;;;;12.36;70.83;101863.06;4990576;28;20485;-49
2023/11/18 10:26:38;;;;;;;8.30;4.38;;;;;;;12.40;70.84;101854.41;4991058;28;20117;-48
2023/11/18 10:29:08;;;;;;;13.65;4.57;;;;;;;12.65;70.03;101847.97;4990568;28;20449;-46
2023/11/18 10:31:37;;;;;;;10.57;4.30;;;;;;;12.49;70.05;101850.28;4990010;28;20075;-44
2023/11/18 10:34:04;;;;;;;11.30;4.60;;;;;;;12.39;70.75;101839.56;4990217;28;20034;-45
2023/11/18 10:36:31;;;;;;;11.38;4.40;;;;;;;12.31;71.54;101854.22;4990957;28;20101;-46
2023/11/18 10:38:56;;;;;;;10.65;4.07;;;;;;;12.22;71.52;101857.50;4990583;28;20038;-45
2023/11/18 10:41:22;;;;;;;10.48;4.50;;;;;;;12.47;70.70;101851.97;4995228;28;20034;-43
2023/11/18 10:43:48;;;;;;;11.43;4.22;;;;;;;12.25;71.68;101826.22;4994601;28;20033;-43
2023/11/18 10:46:16;;;;;;;10.90;4.22;;;;;;;12.28;72.28;101809.69;4995340;28;20038;-43
2023/11/18 10:48:47;;;;;;;11.57;4.18;;;;;;;12.09;73.01;101793.63;4977412;28;20026;-51
2023/11/18 10:51:20;;;;;;;11.80;4.18;;;;;;;11.68;74.94;101779.59;4993604;28;20038;-44
2023/11/18 10:53:53;;;;;;;10.25;4.07;;;;;;;11.98;74.45;101753.31;4993972;28;20117;-45
2023/11/18 10:56:28;;;;;;;11.93;4.90;;;;;;;12.01;74.03;101721.16;4993309;28;20030;-46
2023/11/18 10:59:00;;;;;;;9.35;4.25;;;;;;;11.92;75.02;101694.81;4993824;28;20497;-46
2023/11/18 11:01:33;;;;;;;9.65;4.10;;;;;;;12.10;74.29;101654.25;4993673;28;20113;-50
2023/11/18 11:03:59;;;;;;;10.77;4.00;;;;;;;12.03;74.65;101656.69;4993069;28;20049;-46
2023/11/18 11:06:26;;;;;;;9.20;4.18;;;;;;;11.80;75.59;101666.69;4976076;28;20038;-49
2023/11/18 11:08:52;;;;;;;8.30;3.85;;;;;;;12.06;75.34;101659.38;4975529;28;20109;-48
2023/11/18 11:11:22;;;;;;;9.95;4.45;;;;;;;12.23;74.85;101671.06;4993127;28;20369;-49